Time,TemperatureF,DewpointF,PressureIn,WindDirection,WindDirectionDegrees,WindSpeedMPH,WindSpeedGustMPH,Humidity,HourlyPrecipIn,Conditions,Clouds,dailyrainin,SoftwareType,DateUTC
2013-12-17 00:01:00,46.1,34.1,30.05,North,0,0.0,0.0,63,0.00,,,0.00,WUHU216HW,2013-12-17 06:01:00,
2013-12-17 00:06:00,46.3,33.9,30.04,North,0,0.0,0.0,62,0.00,,,0.00,WUHU216HW,2013-12-17 06:06:00,
2013-12-17 00:11:00,46.4,34.1,30.04,North,0,0.0,0.0,62,0.00,,,0.00,WUHU216HW,2013-12-17 06:11:00,
2013-12-17 00:16:00,46.4,34.1,30.04,North,0,0.0,0.0,62,0.00,,,0.00,WUHU216HW,2013-12-17 06:16:00,
2013-12-17 00:21:00,46.4,34.1,30.04,North,0,0.0,0.0,62,0.00,,,0.00,WUHU216HW,2013-12-17 06:21:00,
2013-12-17 00:26:00,46.4,33.7,30.05,North,0,0.0,0.0,61,0.00,,,0.00,WUHU216HW,2013-12-17 06:26:00,
2013-12-17 00:31:00,46.4,33.7,30.05,North,0,0.0,0.0,61,0.00,,,0.00,WUHU216HW,2013-12-17 06:31:00,
2013-12-17 00:36:00,46.4,33.7,30.05,North,0,0.0,0.0,61,0.00,,,0.00,WUHU216HW,2013-12-17 06:36:00,
2013-12-17 00:41:00,46.4,34.1,30.05,North,0,0.0,0.0,62,0.00,,,0.00,WUHU216HW,2013-12-17 06:41:00,
2013-12-17 00:46:00,46.4,33.7,30.04,North,0,0.0,0.0,61,0.00,,,0.00,WUHU216HW,2013-12-17 06:46:00,
2013-12-17 00:51:00,46.1,33.4,30.04,North,0,0.0,0.0,61,0.00,,,0.00,WUHU216HW,2013-12-17 06:51:00,
2013-12-17 00:56:00,45.9,33.6,30.04,North,0,0.0,0.0,62,0.00,,,0.00,WUHU216HW,2013-12-17 06:56:00,
2013-12-17 01:01:00,46.1,33.4,30.04,North,0,0.0,0.0,61,0.00,,,0.00,WUHU216HW,2013-12-17 07:01:00,
2013-12-17 01:06:00,46.3,33.6,30.04,North,0,0.0,0.0,61,0.00,,,0.00,WUHU216HW,2013-12-17 07:06:00,
2013-12-17 01:11:00,46.1,33.8,30.05,North,0,0.0,0.0,62,0.00,,,0.00,WUHU216HW,2013-12-17 07:11:00,
2013-12-17 01:16:00,46.1,33.4,30.05,North,0,0.0,0.0,61,0.00,,,0.00,WUHU216HW,2013-12-17 07:16:00,
2013-12-17 01:21:00,46.1,33.8,30.05,North,0,0.0,0.0,62,0.00,,,0.00,WUHU216HW,2013-12-17 07:21:00,
2013-12-17 01:26:00,45.9,34.0,30.04,North,0,0.0,0.0,63,0.00,,,0.00,WUHU216HW,2013-12-17 07:26:00,
2013-12-17 01:31:00,45.7,33.4,30.04,North,0,0.0,0.0,62,0.00,,,0.00,WUHU216HW,2013-12-17 07:31:00,
2013-12-17 01:36:00,45.5,33.7,30.04,North,0,0.0,0.0,63,0.00,,,0.00,WUHU216HW,2013-12-17 07:36:00,
2013-12-17 01:41:00,45.2,33.3,30.05,North,0,0.0,0.0,63,0.00,,,0.00,WUHU216HW,2013-12-17 07:41:00,
2013-12-17 01:46:00,45.0,33.1,30.04,North,0,0.0,0.0,63,0.00,,,0.00,WUHU216HW,2013-12-17 07:46:00,
2013-12-17 01:51:00,45.0,33.1,30.04,North,0,0.0,0.0,63,0.00,,,0.00,WUHU216HW,2013-12-17 07:51:00,
2013-12-17 01:56:00,45.0,33.1,30.04,North,0,0.0,0.0,63,0.00,,,0.00,WUHU216HW,2013-12-17 07:56:00,
2013-12-17 02:01:00,45.0,33.1,30.04,North,0,0.0,0.0,63,0.00,,,0.00,WUHU216HW,2013-12-17 08:01:00,
2013-12-17 02:06:00,44.8,32.9,30.05,North,0,0.0,0.0,63,0.00,,,0.00,WUHU216HW,2013-12-17 08:06:00,
2013-12-17 02:11:00,44.5,32.7,30.04,North,0,0.0,0.0,63,0.00,,,0.00,WUHU216HW,2013-12-17 08:11:00,
2013-12-17 02:16:00,44.5,32.7,30.05,North,0,0.0,0.0,63,0.00,,,0.00,WUHU216HW,2013-12-17 08:16:00,
2013-12-17 02:21:00,44.5,33.0,30.06,North,0,0.0,0.0,64,0.00,,,0.00,WUHU216HW,2013-12-17 08:21:00,
2013-12-17 02:26:00,44.5,33.0,30.06,North,0,0.0,0.0,64,0.00,,,0.00,WUHU216HW,2013-12-17 08:26:00,
2013-12-17 02:31:00,44.3,32.9,30.05,North,0,0.0,0.0,64,0.00,,,0.00,WUHU216HW,2013-12-17 08:31:00,
2013-12-17 02:36:00,44.1,33.0,30.05,North,0,0.0,0.0,65,0.00,,,0.00,WUHU216HW,2013-12-17 08:36:00,
2013-12-17 02:41:00,43.9,32.9,30.05,North,0,0.0,0.0,65,0.00,,,0.00,WUHU216HW,2013-12-17 08:41:00,
2013-12-17 02:46:00,43.9,32.9,30.05,North,0,0.0,0.0,65,0.00,,,0.00,WUHU216HW,2013-12-17 08:46:00,
2013-12-17 02:51:00,43.9,32.5,30.06,North,0,0.0,0.0,64,0.00,,,0.00,WUHU216HW,2013-12-17 08:51:00,
2013-12-17 02:56:00,44.1,32.7,30.05,North,0,0.0,0.0,64,0.00,,,0.00,WUHU216HW,2013-12-17 08:56:00,
2013-12-17 03:01:00,44.1,33.0,30.05,North,0,0.0,0.0,65,0.00,,,0.00,WUHU216HW,2013-12-17 09:01:00,
2013-12-17 03:06:00,43.9,32.9,30.05,North,0,0.0,0.0,65,0.00,,,0.00,WUHU216HW,2013-12-17 09:06:00,
2013-12-17 03:11:00,43.6,33.0,30.06,North,0,0.0,0.0,66,0.00,,,0.00,WUHU216HW,2013-12-17 09:11:00,
2013-12-17 03:16:00,43.4,32.8,30.05,North,0,0.0,0.0,66,0.00,,,0.00,WUHU216HW,2013-12-17 09:16:00,
2013-12-17 03:21:00,43.4,32.8,30.05,North,0,0.0,0.0,66,0.00,,,0.00,WUHU216HW,2013-12-17 09:21:00,
2013-12-17 03:26:00,43.2,33.0,30.05,North,0,0.0,0.0,67,0.00,,,0.00,WUHU216HW,2013-12-17 09:26:00,
2013-12-17 03:31:00,43.0,32.9,30.05,North,0,0.0,0.0,67,0.00,,,0.00,WUHU216HW,2013-12-17 09:31:00,
2013-12-17 03:36:00,43.0,32.9,30.06,North,0,0.0,0.0,67,0.00,,,0.00,WUHU216HW,2013-12-17 09:36:00,
2013-12-17 03:41:00,42.8,33.0,30.06,North,0,0.0,0.0,68,0.00,,,0.00,WUHU216HW,2013-12-17 09:41:00,
2013-12-17 03:46:00,42.7,32.9,30.06,North,0,0.0,0.0,68,0.00,,,0.00,WUHU216HW,2013-12-17 09:46:00,
2013-12-17 03:51:00,42.3,32.5,30.05,North,0,0.0,0.0,68,0.00,,,0.00,WUHU216HW,2013-12-17 09:51:00,
2013-12-17 03:56:00,40.9,31.5,30.06,North,0,0.0,0.0,69,0.00,,,0.00,WUHU216HW,2013-12-17 09:56:00,
2013-12-17 04:01:00,40.1,31.5,30.05,North,0,0.0,0.0,71,0.00,,,0.00,WUHU216HW,2013-12-17 10:01:00,
2013-12-17 04:06:00,40.7,32.1,30.05,North,0,0.0,0.0,71,0.00,,,0.00,WUHU216HW,2013-12-17 10:06:00,
2013-12-17 04:10:00,41.2,32.2,30.05,North,0,0.0,0.0,70,0.00,,,0.00,WUHU216HW,2013-12-17 10:10:00,
2013-12-17 04:15:00,41.6,32.2,30.06,North,0,0.0,0.0,69,0.00,,,0.00,WUHU216HW,2013-12-17 10:15:00,
2013-12-17 04:20:00,40.9,30.7,30.06,North,0,0.0,0.0,67,0.00,,,0.00,WUHU216HW,2013-12-17 10:20:00,
2013-12-17 04:25:00,40.0,31.3,30.05,North,0,0.0,0.0,71,0.00,,,0.00,WUHU216HW,2013-12-17 10:25:00,
2013-12-17 04:30:00,39.1,31.2,30.05,North,0,0.0,0.0,73,0.00,,,0.00,WUHU216HW,2013-12-17 10:30:00,
2013-12-17 04:35:00,38.3,31.1,30.06,North,0,0.0,0.0,75,0.00,,,0.00,WUHU216HW,2013-12-17 10:35:00,
2013-12-17 04:40:00,37.8,30.9,30.05,North,0,0.0,0.0,76,0.00,,,0.00,WUHU216HW,2013-12-17 10:40:00,
2013-12-17 04:45:00,37.6,31.1,30.05,North,0,0.0,0.0,77,0.00,,,0.00,WUHU216HW,2013-12-17 10:45:00,
2013-12-17 04:50:00,38.3,31.8,30.05,North,0,0.0,0.0,77,0.00,,,0.00,WUHU216HW,2013-12-17 10:50:00,
2013-12-17 04:55:00,39.2,32.0,30.05,North,0,0.0,0.0,75,0.00,,,0.00,WUHU216HW,2013-12-17 10:55:00,
2013-12-17 05:00:00,39.6,32.0,30.06,North,0,0.0,0.0,74,0.00,,,0.00,WUHU216HW,2013-12-17 11:00:00,
2013-12-17 05:05:00,39.6,31.6,30.05,North,0,0.0,0.0,73,0.00,,,0.00,WUHU216HW,2013-12-17 11:05:00,
2013-12-17 05:10:00,39.6,32.0,30.05,North,0,0.0,0.0,74,0.00,,,0.00,WUHU216HW,2013-12-17 11:10:00,
2013-12-17 05:15:00,39.4,31.4,30.05,North,0,0.0,0.0,73,0.00,,,0.00,WUHU216HW,2013-12-17 11:15:00,
2013-12-17 05:20:00,38.7,30.4,30.06,North,0,0.0,0.0,72,0.00,,,0.00,WUHU216HW,2013-12-17 11:20:00,
2013-12-17 05:25:00,38.3,30.8,30.06,North,0,0.0,0.0,74,0.00,,,0.00,WUHU216HW,2013-12-17 11:25:00,
2013-12-17 05:30:00,38.0,31.1,30.06,North,0,0.0,0.0,76,0.00,,,0.00,WUHU216HW,2013-12-17 11:30:00,
2013-12-17 05:35:00,37.4,30.6,30.06,North,0,0.0,0.0,76,0.00,,,0.00,WUHU216HW,2013-12-17 11:35:00,
2013-12-17 05:40:00,37.4,30.6,30.07,North,0,0.0,0.0,76,0.00,,,0.00,WUHU216HW,2013-12-17 11:40:00,
2013-12-17 05:45:00,37.8,31.2,30.07,North,0,0.0,0.0,77,0.00,,,0.00,WUHU216HW,2013-12-17 11:45:00,
2013-12-17 05:50:00,37.8,30.9,30.07,North,0,0.0,0.0,76,0.00,,,0.00,WUHU216HW,2013-12-17 11:50:00,
2013-12-17 05:55:00,37.8,30.9,30.08,North,0,0.0,0.0,76,0.00,,,0.00,WUHU216HW,2013-12-17 11:55:00,
2013-12-17 06:00:00,37.8,30.9,30.07,North,0,0.0,0.0,76,0.00,,,0.00,WUHU216HW,2013-12-17 12:00:00,
2013-12-17 06:05:00,37.8,31.2,30.07,North,0,0.0,0.0,77,0.00,,,0.00,WUHU216HW,2013-12-17 12:05:00,
2013-12-17 06:10:00,38.3,31.4,30.07,North,0,0.0,0.0,76,0.00,,,0.00,WUHU216HW,2013-12-17 12:10:00,
2013-12-17 06:15:00,38.5,32.0,30.07,North,0,0.0,0.0,77,0.00,,,0.00,WUHU216HW,2013-12-17 12:15:00,
2013-12-17 06:20:00,38.2,31.6,30.07,North,0,0.0,0.0,77,0.00,,,0.00,WUHU216HW,2013-12-17 12:20:00,
2013-12-17 06:25:00,38.9,32.3,30.07,North,0,0.0,0.0,77,0.00,,,0.00,WUHU216HW,2013-12-17 12:25:00,
2013-12-17 06:30:00,39.2,32.3,30.08,North,0,0.0,0.0,76,0.00,,,0.00,WUHU216HW,2013-12-17 12:30:00,
2013-12-17 06:35:00,39.6,32.7,30.08,North,0,0.0,0.0,76,0.00,,,0.00,WUHU216HW,2013-12-17 12:35:00,
2013-12-17 06:40:00,40.0,32.7,30.08,North,0,0.0,0.0,75,0.00,,,0.00,WUHU216HW,2013-12-17 12:40:00,
2013-12-17 06:45:00,40.0,32.7,30.08,North,0,0.0,0.0,75,0.00,,,0.00,WUHU216HW,2013-12-17 12:45:00,
2013-12-17 06:50:00,39.2,31.6,30.08,North,0,0.0,0.0,74,0.00,,,0.00,WUHU216HW,2013-12-17 12:50:00,
2013-12-17 06:55:00,38.9,31.2,30.09,North,0,0.0,0.0,74,0.00,,,0.00,WUHU216HW,2013-12-17 12:55:00,
2013-12-17 07:00:00,37.8,30.9,30.09,North,0,0.0,0.0,76,0.00,,,0.00,WUHU216HW,2013-12-17 13:00:00,
2013-12-17 07:05:00,37.4,30.6,30.09,North,0,0.0,0.0,76,0.00,,,0.00,WUHU216HW,2013-12-17 13:05:00,
2013-12-17 07:10:00,37.3,30.7,30.09,North,0,0.0,0.0,77,0.00,,,0.00,WUHU216HW,2013-12-17 13:10:00,
2013-12-17 07:15:00,37.1,30.3,30.09,North,0,0.0,0.0,76,0.00,,,0.00,WUHU216HW,2013-12-17 13:15:00,
2013-12-17 07:20:00,37.1,30.3,30.10,North,0,0.0,0.0,76,0.00,,,0.00,WUHU216HW,2013-12-17 13:20:00,
2013-12-17 07:25:00,36.9,30.1,30.10,North,0,0.0,0.0,76,0.00,,,0.00,WUHU216HW,2013-12-17 13:25:00,
2013-12-17 07:30:00,36.9,30.3,30.10,North,0,0.0,0.0,77,0.00,,,0.00,WUHU216HW,2013-12-17 13:30:00,
2013-12-17 07:35:00,36.0,29.8,30.10,North,0,0.0,0.0,78,0.00,,,0.00,WUHU216HW,2013-12-17 13:35:00,
2013-12-17 07:40:00,36.0,30.4,30.10,North,0,0.0,0.0,80,0.00,,,0.00,WUHU216HW,2013-12-17 13:40:00,
2013-12-17 07:45:00,36.9,31.3,30.10,North,0,0.0,0.0,80,0.00,,,0.00,WUHU216HW,2013-12-17 13:45:00,
2013-12-17 07:50:00,37.4,31.2,30.11,North,0,0.0,0.0,78,0.00,,,0.00,WUHU216HW,2013-12-17 13:50:00,
2013-12-17 07:55:00,37.8,31.6,30.11,North,0,0.0,0.0,78,0.00,,,0.00,WUHU216HW,2013-12-17 13:55:00,
2013-12-17 08:00:00,38.2,32.0,30.11,North,0,0.0,0.0,78,0.00,,,0.00,WUHU216HW,2013-12-17 14:00:00,
2013-12-17 08:05:00,38.3,32.1,30.10,North,0,0.0,0.0,78,0.00,,,0.00,WUHU216HW,2013-12-17 14:05:00,
2013-12-17 08:10:00,38.5,32.6,30.11,North,0,0.0,0.0,79,0.00,,,0.00,WUHU216HW,2013-12-17 14:10:00,
2013-12-17 08:15:00,39.1,33.1,30.11,North,0,0.0,0.0,79,0.00,,,0.00,WUHU216HW,2013-12-17 14:15:00,
2013-12-17 08:20:00,39.1,32.8,30.11,North,0,0.0,0.0,78,0.00,,,0.00,WUHU216HW,2013-12-17 14:20:00,
2013-12-17 08:25:00,39.4,33.1,30.11,North,0,0.0,0.0,78,0.00,,,0.00,WUHU216HW,2013-12-17 14:25:00,
2013-12-17 08:30:00,40.0,33.3,30.11,North,0,0.0,0.0,77,0.00,,,0.00,WUHU216HW,2013-12-17 14:30:00,
2013-12-17 08:32:00,40.3,33.7,30.12,North,0,0.0,0.0,77,0.00,,,0.00,WUHU216HW,2013-12-17 14:32:00,
2013-12-17 08:37:00,40.7,33.7,30.12,North,0,0.0,0.0,76,0.00,,,0.00,WUHU216HW,2013-12-17 14:37:00,
2013-12-17 08:42:00,40.3,32.9,30.12,North,0,0.0,0.0,75,0.00,,,0.00,WUHU216HW,2013-12-17 14:42:00,
2013-12-17 08:47:00,40.3,33.3,30.12,North,0,0.0,0.0,76,0.00,,,0.00,WUHU216HW,2013-12-17 14:47:00,
2013-12-17 08:52:00,41.2,34.2,30.12,North,0,0.0,0.0,76,0.00,,,0.00,WUHU216HW,2013-12-17 14:52:00,
2013-12-17 08:57:00,42.7,34.9,30.13,North,0,0.0,0.0,74,0.00,,,0.00,WUHU216HW,2013-12-17 14:57:00,
2013-12-17 09:02:00,42.8,34.8,30.13,North,0,0.0,0.0,73,0.00,,,0.00,WUHU216HW,2013-12-17 15:02:00,
2013-12-17 09:07:00,42.8,34.8,30.12,North,0,0.0,0.0,73,0.00,,,0.00,WUHU216HW,2013-12-17 15:07:00,
2013-12-17 09:12:00,43.6,35.5,30.13,North,0,0.0,0.0,73,0.00,,,0.00,WUHU216HW,2013-12-17 15:12:00,
2013-12-17 09:17:00,43.7,35.3,30.13,North,0,0.0,0.0,72,0.00,,,0.00,WUHU216HW,2013-12-17 15:17:00,
2013-12-17 09:22:00,44.1,36.0,30.13,North,0,0.0,0.0,73,0.00,,,0.00,WUHU216HW,2013-12-17 15:22:00,
2013-12-17 09:27:00,44.6,36.8,30.13,North,0,0.0,0.0,74,0.00,,,0.00,WUHU216HW,2013-12-17 15:27:00,
2013-12-17 09:32:00,45.4,37.2,30.13,North,0,0.0,0.0,73,0.00,,,0.00,WUHU216HW,2013-12-17 15:32:00,
2013-12-17 09:37:00,46.1,37.6,30.13,North,0,0.0,0.0,72,0.00,,,0.00,WUHU216HW,2013-12-17 15:37:00,
2013-12-17 09:42:00,46.4,37.6,30.13,North,0,0.0,0.0,71,0.00,,,0.00,WUHU216HW,2013-12-17 15:42:00,
2013-12-17 09:47:00,46.8,37.6,30.14,North,0,0.0,0.0,70,0.00,,,0.00,WUHU216HW,2013-12-17 15:47:00,
2013-12-17 09:52:00,47.5,38.3,30.13,North,0,0.0,0.0,70,0.00,,,0.00,WUHU216HW,2013-12-17 15:52:00,
2013-12-17 09:57:00,48.6,38.9,30.13,North,0,0.0,0.0,69,0.00,,,0.00,WUHU216HW,2013-12-17 15:57:00,
2013-12-17 10:02:00,49.7,39.5,30.13,North,0,0.0,0.0,68,0.00,,,0.00,WUHU216HW,2013-12-17 16:02:00,
2013-12-17 10:07:00,50.6,40.4,30.13,North,0,0.0,0.0,68,0.00,,,0.00,WUHU216HW,2013-12-17 16:07:00,
2013-12-17 10:12:00,51.5,40.9,30.13,North,0,0.0,0.0,67,0.00,,,0.00,WUHU216HW,2013-12-17 16:12:00,
2013-12-17 10:17:00,52.6,41.1,30.13,North,0,0.0,0.0,65,0.00,,,0.00,WUHU216HW,2013-12-17 16:17:00,
2013-12-17 10:22:00,52.9,41.1,30.14,North,0,0.0,0.0,64,0.00,,,0.00,WUHU216HW,2013-12-17 16:22:00,
2013-12-17 10:27:00,53.3,41.4,30.13,North,0,0.0,0.0,64,0.00,,,0.00,WUHU216HW,2013-12-17 16:27:00,
2013-12-17 10:32:00,53.6,41.3,30.13,North,0,0.0,0.0,63,0.00,,,0.00,WUHU216HW,2013-12-17 16:32:00,
2013-12-17 10:37:00,53.6,41.0,30.14,North,0,0.0,0.0,62,0.00,,,0.00,WUHU216HW,2013-12-17 16:37:00,
2013-12-17 10:42:00,53.5,40.8,30.13,North,0,0.0,0.0,62,0.00,,,0.00,WUHU216HW,2013-12-17 16:42:00,
2013-12-17 10:47:00,53.8,41.1,30.13,North,0,0.0,0.0,62,0.00,,,0.00,WUHU216HW,2013-12-17 16:47:00,
2013-12-17 10:52:00,54.4,41.2,30.13,North,0,0.0,0.0,61,0.00,,,0.00,WUHU216HW,2013-12-17 16:52:00,
2013-12-17 10:57:00,54.7,41.5,30.13,North,0,0.0,0.0,61,0.00,,,0.00,WUHU216HW,2013-12-17 16:57:00,
2013-12-17 11:02:00,55.3,41.6,30.12,North,0,0.0,0.0,60,0.00,,,0.00,WUHU216HW,2013-12-17 17:02:00,
2013-12-17 11:07:00,55.8,42.1,30.12,North,0,0.0,0.0,60,0.00,,,0.00,WUHU216HW,2013-12-17 17:07:00,
2013-12-17 11:12:00,56.5,42.0,30.12,North,0,0.0,0.0,58,0.00,,,0.00,WUHU216HW,2013-12-17 17:12:00,
2013-12-17 11:17:00,57.2,41.7,30.12,North,0,0.0,0.0,56,0.00,,,0.00,WUHU216HW,2013-12-17 17:17:00,
2013-12-17 11:22:00,57.2,41.7,30.12,North,0,0.0,0.0,56,0.00,,,0.00,WUHU216HW,2013-12-17 17:22:00,
2013-12-17 11:27:00,57.6,41.6,30.12,North,0,0.0,0.0,55,0.00,,,0.00,WUHU216HW,2013-12-17 17:27:00,
2013-12-17 11:32:00,58.0,42.9,30.12,North,0,0.0,0.0,57,0.00,,,0.00,WUHU216HW,2013-12-17 17:32:00,
2013-12-17 11:37:00,58.1,42.5,30.12,North,0,0.0,0.0,56,0.00,,,0.00,WUHU216HW,2013-12-17 17:37:00,
2013-12-17 11:42:00,58.5,42.9,30.11,North,0,0.0,0.0,56,0.00,,,0.00,WUHU216HW,2013-12-17 17:42:00,
2013-12-17 11:47:00,58.7,42.5,30.11,North,0,0.0,0.0,55,0.00,,,0.00,WUHU216HW,2013-12-17 17:47:00,
2013-12-17 11:52:00,59.4,43.7,30.11,North,0,0.0,0.0,56,0.00,,,0.00,WUHU216HW,2013-12-17 17:52:00,
2013-12-17 11:57:00,59.8,42.6,30.11,North,0,0.0,0.0,53,0.00,,,0.00,WUHU216HW,2013-12-17 17:57:00,
2013-12-17 12:02:00,60.1,43.4,30.11,North,0,0.0,0.0,54,0.00,,,0.00,WUHU216HW,2013-12-17 18:02:00,
2013-12-17 12:07:00,60.1,42.9,30.10,North,0,0.0,0.0,53,0.00,,,0.00,WUHU216HW,2013-12-17 18:07:00,
2013-12-17 12:12:00,60.5,43.2,30.10,North,0,0.0,0.0,53,0.00,,,0.00,WUHU216HW,2013-12-17 18:12:00,
2013-12-17 12:17:00,60.7,43.4,30.09,North,0,0.0,0.0,53,0.00,,,0.00,WUHU216HW,2013-12-17 18:17:00,
2013-12-17 12:22:00,61.0,43.3,30.09,North,0,0.0,0.0,52,0.00,,,0.00,WUHU216HW,2013-12-17 18:22:00,
2013-12-17 12:27:00,61.6,43.7,30.08,North,0,0.0,0.0,52,0.00,,,0.00,WUHU216HW,2013-12-17 18:27:00,
2013-12-17 12:32:00,61.9,44.1,30.08,North,0,0.0,0.0,52,0.00,,,0.00,WUHU216HW,2013-12-17 18:32:00,
2013-12-17 12:37:00,62.1,43.7,30.08,North,0,0.0,0.0,51,0.00,,,0.00,WUHU216HW,2013-12-17 18:37:00,
2013-12-17 12:42:00,62.3,43.9,30.07,North,0,0.0,0.0,51,0.00,,,0.00,WUHU216HW,2013-12-17 18:42:00,
2013-12-17 12:47:00,62.6,43.2,30.07,North,0,0.0,0.0,49,0.00,,,0.00,WUHU216HW,2013-12-17 18:47:00,
2013-12-17 12:52:00,63.0,43.5,30.07,North,0,0.0,0.0,49,0.00,,,0.00,WUHU216HW,2013-12-17 18:52:00,
2013-12-17 12:57:00,63.2,43.1,30.06,North,0,0.0,0.0,48,0.00,,,0.00,WUHU216HW,2013-12-17 18:57:00,
2013-12-17 13:02:00,63.5,42.9,30.06,North,0,0.0,0.0,47,0.00,,,0.00,WUHU216HW,2013-12-17 19:02:00,
2013-12-17 13:07:00,63.7,41.2,30.06,North,0,0.0,0.0,44,0.00,,,0.00,WUHU216HW,2013-12-17 19:07:00,
2013-12-17 13:12:00,63.7,42.4,30.06,North,0,0.0,0.0,46,0.00,,,0.00,WUHU216HW,2013-12-17 19:12:00,
2013-12-17 13:17:00,64.1,42.1,30.06,North,0,0.0,0.0,45,0.00,,,0.00,WUHU216HW,2013-12-17 19:17:00,
2013-12-17 13:22:00,64.3,41.8,30.06,North,0,0.0,0.0,44,0.00,,,0.00,WUHU216HW,2013-12-17 19:22:00,
2013-12-17 13:27:00,64.8,40.0,30.06,North,0,0.0,0.0,40,0.00,,,0.00,WUHU216HW,2013-12-17 19:27:00,
2013-12-17 13:32:00,65.2,40.2,30.06,North,0,0.0,0.0,40,0.00,,,0.00,WUHU216HW,2013-12-17 19:32:00,
2013-12-17 13:37:00,65.5,41.1,30.06,North,0,0.0,0.0,41,0.00,,,0.00,WUHU216HW,2013-12-17 19:37:00,
2013-12-17 13:42:00,65.7,40.8,30.06,North,0,0.0,0.0,40,0.00,,,0.00,WUHU216HW,2013-12-17 19:42:00,
2013-12-17 13:47:00,65.7,43.1,30.06,North,0,0.0,0.0,44,0.00,,,0.00,WUHU216HW,2013-12-17 19:47:00,
2013-12-17 13:52:00,65.5,43.5,30.05,North,0,0.0,0.0,45,0.00,,,0.00,WUHU216HW,2013-12-17 19:52:00,
2013-12-17 13:57:00,65.9,43.8,30.05,North,0,0.0,0.0,45,0.00,,,0.00,WUHU216HW,2013-12-17 19:57:00,
2013-12-17 14:02:00,66.2,44.2,30.05,North,0,0.0,0.0,45,0.00,,,0.00,WUHU216HW,2013-12-17 20:02:00,
2013-12-17 14:07:00,66.2,43.6,30.05,North,0,0.0,0.0,44,0.00,,,0.00,WUHU216HW,2013-12-17 20:07:00,
2013-12-17 14:12:00,66.4,43.2,30.05,North,0,0.0,0.0,43,0.00,,,0.00,WUHU216HW,2013-12-17 20:12:00,
2013-12-17 14:17:00,66.6,43.3,30.05,North,0,0.0,0.0,43,0.00,,,0.00,WUHU216HW,2013-12-17 20:17:00,
2013-12-17 14:22:00,66.6,43.3,30.04,North,0,0.0,0.0,43,0.00,,,0.00,WUHU216HW,2013-12-17 20:22:00,
2013-12-17 14:27:00,66.6,43.9,30.04,North,0,0.0,0.0,44,0.00,,,0.00,WUHU216HW,2013-12-17 20:27:00,
2013-12-17 14:32:00,66.8,42.9,30.04,North,0,0.0,0.0,42,0.00,,,0.00,WUHU216HW,2013-12-17 20:32:00,
2013-12-17 14:37:00,67.0,41.9,30.04,North,0,0.0,0.0,40,0.00,,,0.00,WUHU216HW,2013-12-17 20:37:00,
2013-12-17 14:42:00,67.3,43.4,30.04,North,0,0.0,0.0,42,0.00,,,0.00,WUHU216HW,2013-12-17 20:42:00,
2013-12-17 14:47:00,67.0,42.5,30.04,North,0,0.0,0.0,41,0.00,,,0.00,WUHU216HW,2013-12-17 20:47:00,
2013-12-17 14:52:00,67.3,43.4,30.04,North,0,0.0,0.0,42,0.00,,,0.00,WUHU216HW,2013-12-17 20:52:00,
2013-12-17 14:57:00,67.5,42.9,30.04,North,0,0.0,0.0,41,0.00,,,0.00,WUHU216HW,2013-12-17 20:57:00,
2013-12-17 15:02:00,67.5,42.4,30.04,North,0,0.0,0.0,40,0.00,,,0.00,WUHU216HW,2013-12-17 21:02:00,
2013-12-17 15:07:00,67.5,42.9,30.04,North,0,0.0,0.0,41,0.00,,,0.00,WUHU216HW,2013-12-17 21:07:00,
2013-12-17 15:12:00,67.3,42.8,30.04,North,0,0.0,0.0,41,0.00,,,0.00,WUHU216HW,2013-12-17 21:12:00,
2013-12-17 15:17:00,67.3,42.8,30.04,North,0,0.0,0.0,41,0.00,,,0.00,WUHU216HW,2013-12-17 21:17:00,
2013-12-17 15:22:00,67.3,41.5,30.04,North,0,0.0,0.0,39,0.00,,,0.00,WUHU216HW,2013-12-17 21:22:00,
2013-12-17 15:27:00,67.7,41.8,30.04,North,0,0.0,0.0,39,0.00,,,0.00,WUHU216HW,2013-12-17 21:27:00,
2013-12-17 15:32:00,67.7,41.8,30.04,North,0,0.0,0.0,39,0.00,,,0.00,WUHU216HW,2013-12-17 21:32:00,
2013-12-17 15:37:00,67.7,42.5,30.04,North,0,0.0,0.0,40,0.00,,,0.00,WUHU216HW,2013-12-17 21:37:00,
2013-12-17 15:42:00,67.5,42.4,30.04,North,0,0.0,0.0,40,0.00,,,0.00,WUHU216HW,2013-12-17 21:42:00,
2013-12-17 15:47:00,67.3,43.4,30.04,North,0,0.0,0.0,42,0.00,,,0.00,WUHU216HW,2013-12-17 21:47:00,
2013-12-17 15:52:00,67.3,43.4,30.04,North,0,0.0,0.0,42,0.00,,,0.00,WUHU216HW,2013-12-17 21:52:00,
2013-12-17 15:57:00,67.3,42.8,30.04,North,0,0.0,0.0,41,0.00,,,0.00,WUHU216HW,2013-12-17 21:57:00,
2013-12-17 16:02:00,67.3,42.8,30.04,North,0,0.0,0.0,41,0.00,,,0.00,WUHU216HW,2013-12-17 22:02:00,
2013-12-17 16:07:00,67.3,44.0,30.05,North,0,0.0,0.0,43,0.00,,,0.00,WUHU216HW,2013-12-17 22:07:00,
2013-12-17 16:12:00,67.0,43.0,30.05,North,0,0.0,0.0,42,0.00,,,0.00,WUHU216HW,2013-12-17 22:12:00,
2013-12-17 16:16:00,67.0,43.7,30.05,North,0,0.0,0.0,43,0.00,,,0.00,WUHU216HW,2013-12-17 22:16:00,
2013-12-17 16:21:00,66.8,43.5,30.05,North,0,0.0,0.0,43,0.00,,,0.00,WUHU216HW,2013-12-17 22:21:00,
2013-12-17 16:26:00,66.8,41.7,30.05,North,0,0.0,0.0,40,0.00,,,0.00,WUHU216HW,2013-12-17 22:26:00,
2013-12-17 16:31:00,66.6,42.1,30.05,North,0,0.0,0.0,41,0.00,,,0.00,WUHU216HW,2013-12-17 22:31:00,
2013-12-17 16:36:00,66.6,42.8,30.05,North,0,0.0,0.0,42,0.00,,,0.00,WUHU216HW,2013-12-17 22:36:00,
2013-12-17 16:41:00,66.2,42.4,30.05,North,0,0.0,0.0,42,0.00,,,0.00,WUHU216HW,2013-12-17 22:41:00,
2013-12-17 16:46:00,66.2,43.0,30.05,North,0,0.0,0.0,43,0.00,,,0.00,WUHU216HW,2013-12-17 22:46:00,
2013-12-17 16:51:00,65.9,42.7,30.05,North,0,0.0,0.0,43,0.00,,,0.00,WUHU216HW,2013-12-17 22:51:00,
2013-12-17 16:56:00,65.7,42.5,30.05,North,0,0.0,0.0,43,0.00,,,0.00,WUHU216HW,2013-12-17 22:56:00,
2013-12-17 17:01:00,65.3,42.8,30.05,North,0,0.0,0.0,44,0.00,,,0.00,WUHU216HW,2013-12-17 23:01:00,
2013-12-17 17:06:00,65.0,42.4,30.05,North,0,0.0,0.0,44,0.00,,,0.00,WUHU216HW,2013-12-17 23:06:00,
2013-12-17 17:11:00,64.6,42.7,30.05,North,0,0.0,0.0,45,0.00,,,0.00,WUHU216HW,2013-12-17 23:11:00,
2013-12-17 17:16:00,64.4,42.5,30.05,North,0,0.0,0.0,45,0.00,,,0.00,WUHU216HW,2013-12-17 23:16:00,
2013-12-17 17:21:00,64.1,42.1,30.05,North,0,0.0,0.0,45,0.00,,,0.00,WUHU216HW,2013-12-17 23:21:00,
2013-12-17 17:26:00,63.7,41.9,30.06,North,0,0.0,0.0,45,0.00,,,0.00,WUHU216HW,2013-12-17 23:26:00,
2013-12-17 17:31:00,63.4,41.5,30.06,North,0,0.0,0.0,45,0.00,,,0.00,WUHU216HW,2013-12-17 23:31:00,
2013-12-17 17:36:00,63.0,41.2,30.06,North,0,0.0,0.0,45,0.00,,,0.00,WUHU216HW,2013-12-17 23:36:00,
2013-12-17 17:41:00,62.6,41.4,30.06,North,0,0.0,0.0,46,0.00,,,0.00,WUHU216HW,2013-12-17 23:41:00,
2013-12-17 17:46:00,61.7,41.8,30.06,North,0,0.0,0.0,48,0.00,,,0.00,WUHU216HW,2013-12-17 23:46:00,
2013-12-17 17:51:00,60.8,41.6,30.06,North,0,0.0,0.0,49,0.00,,,0.00,WUHU216HW,2013-12-17 23:51:00,
2013-12-17 17:56:00,60.3,41.0,30.06,North,0,0.0,0.0,49,0.00,,,0.00,WUHU216HW,2013-12-17 23:56:00,
2013-12-17 18:01:00,59.8,40.6,30.07,North,0,0.0,0.0,49,0.00,,,0.00,WUHU216HW,2013-12-18 00:01:00,
2013-12-17 18:06:00,59.8,41.1,30.06,North,0,0.0,0.0,50,0.00,,,0.00,WUHU216HW,2013-12-18 00:06:00,
2013-12-17 18:11:00,59.4,40.9,30.07,North,0,0.0,0.0,50,0.00,,,0.00,WUHU216HW,2013-12-18 00:11:00,
2013-12-17 18:16:00,59.2,40.7,30.07,North,0,0.0,0.0,50,0.00,,,0.00,WUHU216HW,2013-12-18 00:16:00,
2013-12-17 18:21:00,59.2,40.7,30.06,North,0,0.0,0.0,50,0.00,,,0.00,WUHU216HW,2013-12-18 00:21:00,
2013-12-17 18:26:00,59.2,40.7,30.07,North,0,0.0,0.0,50,0.00,,,0.00,WUHU216HW,2013-12-18 00:26:00,
2013-12-17 18:31:00,59.0,40.5,30.06,North,0,0.0,0.0,50,0.00,,,0.00,WUHU216HW,2013-12-18 00:31:00,
2013-12-17 18:36:00,59.0,40.5,30.06,North,0,0.0,0.0,50,0.00,,,0.00,WUHU216HW,2013-12-18 00:36:00,
2013-12-17 18:41:00,58.7,40.1,30.07,North,0,0.0,0.0,50,0.00,,,0.00,WUHU216HW,2013-12-18 00:41:00,
2013-12-17 18:46:00,58.1,40.1,30.07,North,0,0.0,0.0,51,0.00,,,0.00,WUHU216HW,2013-12-18 00:46:00,
2013-12-17 18:51:00,58.0,40.0,30.07,North,0,0.0,0.0,51,0.00,,,0.00,WUHU216HW,2013-12-18 00:51:00,
2013-12-17 18:56:00,57.8,40.3,30.07,North,0,0.0,0.0,52,0.00,,,0.00,WUHU216HW,2013-12-18 00:56:00,
2013-12-17 19:01:00,57.4,40.0,30.07,North,0,0.0,0.0,52,0.00,,,0.00,WUHU216HW,2013-12-18 01:01:00,
2013-12-17 19:06:00,57.6,40.1,30.07,North,0,0.0,0.0,52,0.00,,,0.00,WUHU216HW,2013-12-18 01:06:00,
2013-12-17 19:11:00,57.6,40.1,30.07,North,0,0.0,0.0,52,0.00,,,0.00,WUHU216HW,2013-12-18 01:11:00,
2013-12-17 19:16:00,57.8,40.3,30.07,North,0,0.0,0.0,52,0.00,,,0.00,WUHU216HW,2013-12-18 01:16:00,
2013-12-17 19:21:00,58.0,40.5,30.07,North,0,0.0,0.0,52,0.00,,,0.00,WUHU216HW,2013-12-18 01:21:00,
2013-12-17 19:26:00,58.0,40.5,30.07,North,0,0.0,0.0,52,0.00,,,0.00,WUHU216HW,2013-12-18 01:26:00,
2013-12-17 19:31:00,58.1,40.6,30.08,North,0,0.0,0.0,52,0.00,,,0.00,WUHU216HW,2013-12-18 01:31:00,
2013-12-17 19:36:00,58.0,40.5,30.08,North,0,0.0,0.0,52,0.00,,,0.00,WUHU216HW,2013-12-18 01:36:00,
2013-12-17 19:41:00,57.8,40.3,30.08,North,0,0.0,0.0,52,0.00,,,0.00,WUHU216HW,2013-12-18 01:41:00,
2013-12-17 19:46:00,57.4,40.4,30.08,North,0,0.0,0.0,53,0.00,,,0.00,WUHU216HW,2013-12-18 01:46:00,
2013-12-17 19:51:00,57.2,40.3,30.09,North,0,0.0,0.0,53,0.00,,,0.00,WUHU216HW,2013-12-18 01:51:00,
2013-12-17 19:56:00,57.2,40.8,30.09,North,0,0.0,0.0,54,0.00,,,0.00,WUHU216HW,2013-12-18 01:56:00,
2013-12-17 20:01:00,57.1,40.6,30.09,North,0,0.0,0.0,54,0.00,,,0.00,WUHU216HW,2013-12-18 02:01:00,
2013-12-17 20:06:00,56.3,39.9,30.09,North,0,0.0,0.0,54,0.00,,,0.00,WUHU216HW,2013-12-18 02:06:00,
2013-12-17 20:11:00,55.4,38.5,30.09,North,0,0.0,0.0,53,0.00,,,0.00,WUHU216HW,2013-12-18 02:11:00,
2013-12-17 20:16:00,55.1,38.6,30.09,North,0,0.0,0.0,54,0.00,,,0.00,WUHU216HW,2013-12-18 02:16:00,
2013-12-17 20:21:00,54.7,39.2,30.09,North,0,0.0,0.0,56,0.00,,,0.00,WUHU216HW,2013-12-18 02:21:00,
2013-12-17 20:26:00,54.5,39.5,30.09,North,0,0.0,0.0,57,0.00,,,0.00,WUHU216HW,2013-12-18 02:26:00,
2013-12-17 20:31:00,54.2,39.3,30.09,North,0,0.0,0.0,57,0.00,,,0.00,WUHU216HW,2013-12-18 02:31:00,
2013-12-17 20:36:00,54.0,39.5,30.09,North,0,0.0,0.0,58,0.00,,,0.00,WUHU216HW,2013-12-18 02:36:00,
2013-12-17 20:41:00,53.6,39.3,30.09,North,0,0.0,0.0,58,0.00,,,0.00,WUHU216HW,2013-12-18 02:41:00,
2013-12-17 20:46:00,53.5,39.5,30.09,North,0,0.0,0.0,59,0.00,,,0.00,WUHU216HW,2013-12-18 02:46:00,
2013-12-17 20:51:00,53.3,39.3,30.10,North,0,0.0,0.0,59,0.00,,,0.00,WUHU216HW,2013-12-18 02:51:00,
2013-12-17 20:56:00,53.1,39.2,30.09,North,0,0.0,0.0,59,0.00,,,0.00,WUHU216HW,2013-12-18 02:56:00,
2013-12-17 21:01:00,53.1,39.6,30.09,North,0,0.0,0.0,60,0.00,,,0.00,WUHU216HW,2013-12-18 03:01:00,
2013-12-17 21:06:00,52.9,39.4,30.10,North,0,0.0,0.0,60,0.00,,,0.00,WUHU216HW,2013-12-18 03:06:00,
2013-12-17 21:11:00,52.9,39.4,30.10,North,0,0.0,0.0,60,0.00,,,0.00,WUHU216HW,2013-12-18 03:11:00,
2013-12-17 21:16:00,52.9,39.8,30.10,North,0,0.0,0.0,61,0.00,,,0.00,WUHU216HW,2013-12-18 03:16:00,
2013-12-17 21:21:00,52.6,39.1,30.10,North,0,0.0,0.0,60,0.00,,,0.00,WUHU216HW,2013-12-18 03:21:00,
2013-12-17 21:26:00,52.6,39.5,30.10,North,0,0.0,0.0,61,0.00,,,0.00,WUHU216HW,2013-12-18 03:26:00,
2013-12-17 21:31:00,52.4,39.3,30.10,North,0,0.0,0.0,61,0.00,,,0.00,WUHU216HW,2013-12-18 03:31:00,
2013-12-17 21:36:00,52.2,39.5,30.10,North,0,0.0,0.0,62,0.00,,,0.00,WUHU216HW,2013-12-18 03:36:00,
2013-12-17 21:41:00,52.2,39.2,30.10,North,0,0.0,0.0,61,0.00,,,0.00,WUHU216HW,2013-12-18 03:41:00,
2013-12-17 21:46:00,52.0,39.3,30.10,North,0,0.0,0.0,62,0.00,,,0.00,WUHU216HW,2013-12-18 03:46:00,
2013-12-17 21:51:00,51.8,39.2,30.10,North,0,0.0,0.0,62,0.00,,,0.00,WUHU216HW,2013-12-18 03:51:00,
2013-12-17 21:56:00,51.7,39.0,30.10,North,0,0.0,0.0,62,0.00,,,0.00,WUHU216HW,2013-12-18 03:56:00,
2013-12-17 22:01:00,51.7,39.0,30.10,North,0,0.0,0.0,62,0.00,,,0.00,WUHU216HW,2013-12-18 04:01:00,
2013-12-17 22:06:00,51.5,38.9,30.10,North,0,0.0,0.0,62,0.00,,,0.00,WUHU216HW,2013-12-18 04:06:00,
2013-12-17 22:11:00,51.5,39.2,30.10,North,0,0.0,0.0,63,0.00,,,0.00,WUHU216HW,2013-12-18 04:11:00,
2013-12-17 22:16:00,51.5,39.2,30.10,North,0,0.0,0.0,63,0.00,,,0.00,WUHU216HW,2013-12-18 04:16:00,
2013-12-17 22:21:00,51.3,39.1,30.10,North,0,0.0,0.0,63,0.00,,,0.00,WUHU216HW,2013-12-18 04:21:00,
2013-12-17 22:26:00,51.1,38.9,30.10,North,0,0.0,0.0,63,0.00,,,0.00,WUHU216HW,2013-12-18 04:26:00,
2013-12-17 22:31:00,51.1,38.9,30.10,North,0,0.0,0.0,63,0.00,,,0.00,WUHU216HW,2013-12-18 04:31:00,
2013-12-17 22:36:00,50.8,38.6,30.10,North,0,0.0,0.0,63,0.00,,,0.00,WUHU216HW,2013-12-18 04:36:00,
2013-12-17 22:41:00,50.6,38.8,30.10,North,0,0.0,0.0,64,0.00,,,0.00,WUHU216HW,2013-12-18 04:41:00,
2013-12-17 22:46:00,50.4,38.6,30.10,North,0,0.0,0.0,64,0.00,,,0.00,WUHU216HW,2013-12-18 04:46:00,
2013-12-17 22:51:00,50.2,38.4,30.10,North,0,0.0,0.0,64,0.00,,,0.00,WUHU216HW,2013-12-18 04:51:00,
2013-12-17 22:56:00,50.0,38.4,30.10,North,0,0.0,0.0,64,0.00,,,0.00,WUHU216HW,2013-12-18 04:56:00,
2013-12-17 23:01:00,50.0,38.4,30.10,North,0,0.0,0.0,64,0.00,,,0.00,WUHU216HW,2013-12-18 05:01:00,
2013-12-17 23:02:00,50.0,38.4,30.10,North,0,0.0,0.0,64,0.00,,,0.00,WUHU216HW,2013-12-18 05:02:00,
2013-12-17 23:07:00,49.9,38.2,30.10,North,0,0.0,0.0,64,0.00,,,0.00,WUHU216HW,2013-12-18 05:07:00,
2013-12-17 23:12:00,49.5,38.6,30.10,North,0,0.0,0.0,66,0.00,,,0.00,WUHU216HW,2013-12-18 05:12:00,
2013-12-17 23:17:00,49.3,38.8,30.10,North,0,0.0,0.0,67,0.00,,,0.00,WUHU216HW,2013-12-18 05:17:00,
2013-12-17 23:22:00,49.0,38.4,30.10,North,0,0.0,0.0,67,0.00,,,0.00,WUHU216HW,2013-12-18 05:22:00,
2013-12-17 23:27:00,49.0,38.4,30.10,North,0,0.0,0.0,67,0.00,,,0.00,WUHU216HW,2013-12-18 05:27:00,
2013-12-17 23:32:00,49.0,38.1,30.10,North,0,0.0,0.0,66,0.00,,,0.00,WUHU216HW,2013-12-18 05:32:00,
2013-12-17 23:37:00,48.8,38.3,30.10,North,0,0.0,0.0,67,0.00,,,0.00,WUHU216HW,2013-12-18 05:37:00,
2013-12-17 23:42:00,48.8,38.6,30.10,North,0,0.0,0.0,68,0.00,,,0.00,WUHU216HW,2013-12-18 05:42:00,
2013-12-17 23:47:00,48.8,38.6,30.10,North,0,0.0,0.0,68,0.00,,,0.00,WUHU216HW,2013-12-18 05:47:00,
2013-12-17 23:52:00,48.6,38.5,30.10,North,0,0.0,0.0,68,0.00,,,0.00,WUHU216HW,2013-12-18 05:52:00,
2013-12-17 23:57:00,48.4,38.4,30.10,North,0,0.0,0.0,68,0.00,,,0.00,WUHU216HW,2013-12-18 05:57:00,